Terminal Aerodrome Forecast
Issued by NWS

Home | Current Version | Previous Version | Text Only | Print | Product List | Glossary On
Versions: 1 2 3 4 5 6 7 8 9 10 11 12
000
FTUS44 KEPZ 021734
TAFDMN
TAF
KDMN 021734Z 0218/0318 27011KT P6SM SCT100 BKN250
     FM030200 29008KT P6SM VCTS SCT080CB BKN150
      TEMPO 0302/0306 2SM TSRA BKN040CB
     FM030800 27006KT P6SM BKN070 BKN150=

USA.gov is the U.S. government's official web portal to all federal, state and local government web resources and services.